Kyokusho Maru — JL6605 — position and weather

sailwx.info

Track history (hours):
 
Tides and Currents Weather Stations Pressure Air Temp Water Temp Dewpoint Dewpoint Depression Visibility Wind Speed Wind Dir Waves Ship Positions

Kyokusho Maru

Last reported at 2014-Sep-23 19:26 UTC. Time now 2014-Sep-23 20:30 UTC.
Position N 34°10' E 132°19'.

Length 77 m; draft 3.6 m.

Type: Tanker. MMSI: 431501667.

Date/timePositionNaut miles runAvg speedWind from/ knotsBaromVisibWave heightAir tempDewpointWater temp
2014-Sep-23 19:26N 34°10' E 132°19'0 0.0
2014-Sep-23 18:17N 34°10' E 132°19'0 0.0
2014-Sep-23 17:20N 34°10' E 132°19'0 0.0
2014-Sep-23 16:32N 34°10' E 132°19'0 0.0
2014-Sep-23 13:20N 34°10' E 132°19'0 0.0
2014-Sep-23 12:32N 34°10' E 132°19'0 0.0
2014-Sep-23 11:11N 34°10' E 132°19'0 0.0
2014-Sep-23 10:32N 34°10' E 132°19'0 0.0
2014-Sep-23 09:26N 34°10' E 132°19'0 0.0
2014-Sep-23 08:32N 34°10' E 132°19'0 0.0
2014-Sep-23 07:32N 34°10' E 132°19'0 0.1
2014-Sep-23 06:26N 34°10' E 132°19'0 0.0
2014-Sep-23 04:32N 34°10' E 132°19'0 0.0
2014-Sep-22 23:32N 34°10' E 132°19'0 0.0
2014-Sep-22 22:29N 34°10' E 132°19'0 0.0
2014-Sep-22 20:14N 34°10' E 132°19'0 0.0
2014-Sep-22 19:20N 34°10' E 132°19'0 0.0
2014-Sep-22 18:32N 34°10' E 132°19'0 0.1
2014-Sep-22 17:32N 34°10' E 132°19'0 0.0
2014-Sep-22 16:32N 34°10' E 132°19'0 0.0
2014-Sep-22 15:32N 34°10' E 132°19'0 0.0
2014-Sep-22 14:32N 34°10' E 132°19'0 0.0
2014-Sep-22 13:32N 34°10' E 132°19'0 0.0
2014-Sep-22 12:32N 34°10' E 132°19'0 0.0
2014-Sep-22 10:32N 34°10' E 132°19'0 0.1
2014-Sep-22 09:32N 34°10' E 132°19'0 0.0
2014-Sep-22 08:29N 34°10' E 132°19'0 0.0
2014-Sep-22 07:29N 34°10' E 132°19'0 0.0
2014-Sep-22 05:20N 34°10' E 132°19'1 0.2
2014-Sep-21 22:33N 34°11' E 132°17'1 0.0
2014-Sep-20 00:30N 34°10' E 132°18'0 0.0
2014-Sep-19 23:12N 34°10' E 132°18'0 0.1
2014-Sep-19 22:21N 34°10' E 132°18'0 0.0
2014-Sep-19 20:21N 34°10' E 132°18'0 0.0
2014-Sep-19 19:18N 34°10' E 132°18'0 0.0
2014-Sep-19 18:33N 34°10' E 132°18'0 0.0
2014-Sep-19 16:03N 34°10' E 132°19'0 0.0
2014-Sep-19 15:06N 34°10' E 132°19'0 0.3
2014-Sep-19 14:06N 34°10' E 132°19'1510.0
2014-Sep-19 12:33N 34°04' E 132°36'120 5.3
2014-Sep-18 14:11N 34°36' E 134°55'6 8.9
2014-Sep-18 13:33N 34°37' E 135°02'9 8.6
2014-Sep-18 12:33N 34°28' E 135°04'11 9.9
2014-Sep-18 11:27N 34°18' E 134°60'237 8.5
2014-Sep-17 07:30N 35°06' E 139°41'1111.0
2014-Sep-17 06:33N 35°16' E 139°46'10 9.8
2014-Sep-17 05:33N 35°26' E 139°45'5 1.5
2014-Sep-17 02:04N 35°31' E 139°46'0 0.5
2014-Sep-17 01:33N 35°31' E 139°46'3 2.6
2014-Sep-17 00:27N 35°29' E 139°49'0 0.0
2014-Sep-16 23:33N 35°29' E 139°49'0 0.0
2014-Sep-16 22:33N 35°29' E 139°49'0 0.0
2014-Sep-16 21:33N 35°29' E 139°49'0 0.0
2014-Sep-16 20:33N 35°29' E 139°49'0 0.0
2014-Sep-16 19:33N 35°29' E 139°49'0 0.0
2014-Sep-16 18:33N 35°29' E 139°49'0 0.0
2014-Sep-16 17:33N 35°29' E 139°49'0 0.0
2014-Sep-16 16:33N 35°29' E 139°49'0 0.1
2014-Sep-16 15:30N 35°29' E 139°49'0 0.1
2014-Sep-16 14:30N 35°29' E 139°49'0 0.1
2014-Sep-16 13:30N 35°29' E 139°49'0 0.1
2014-Sep-16 12:33N 35°29' E 139°49'0 0.0
2014-Sep-16 11:33N 35°29' E 139°49'0 0.0
2014-Sep-16 10:33N 35°29' E 139°49'0 0.0
2014-Sep-16 09:21N 35°29' E 139°49'0 0.0
2014-Sep-16 08:33N 35°29' E 139°49'0 0.0
2014-Sep-16 07:33N 35°29' E 139°49'0 0.0
2014-Sep-16 06:33N 35°29' E 139°49'0 0.0
2014-Sep-16 05:33N 35°29' E 139°49'0 0.0
2014-Sep-16 04:33N 35°29' E 139°49'0 0.1
2014-Sep-16 03:33N 35°29' E 139°49'0 0.0
2014-Sep-16 02:33N 35°29' E 139°49'0 0.0
2014-Sep-16 01:33N 35°29' E 139°49'0 0.0
2014-Sep-16 00:33N 35°29' E 139°49'0 0.0
2014-Sep-15 23:33N 35°29' E 139°49'0 0.0
2014-Sep-15 22:33N 35°29' E 139°49'0 0.0
2014-Sep-15 21:33N 35°29' E 139°49'0 0.0
2014-Sep-15 20:33N 35°29' E 139°49'0 0.0
2014-Sep-15 19:27N 35°29' E 139°49'1 0.6
2014-Sep-15 18:33N 35°28' E 139°48'1110.7
2014-Sep-15 17:33N 35°18' E 139°45'1110.6
2014-Sep-15 16:33N 35°07' E 139°45'245 9.6
2014-Sep-14 15:03N 34°01' E 134°59'611.8
2014-Sep-14 14:33N 34°07' E 134°59'1312.4
2014-Sep-14 13:32N 34°20' E 134°59'1111.7
2014-Sep-14 12:33N 34°30' E 135°02'7 7.2
2014-Sep-14 11:32N 34°36' E 134°56'  
Track history (hours):
 
Tides and Currents Weather Stations Pressure Air Temp Water Temp Dewpoint Dewpoint Depression Visibility Wind Speed Wind Dir Waves Ship Positions

Kyokusho Maru

Last reported at 2014-Sep-23 19:26 UTC. Time now 2014-Sep-23 20:30 UTC.
Position N 34°10' E 132°19'.

Length 77 m; draft 3.6 m.

Type: Tanker. MMSI: 431501667.

Date/timePositionNaut miles runAvg speedWind from/ knotsBaromVisibWave heightAir tempDewpointWater temp
2014-Sep-23 19:26N 34°10' E 132°19'0 0.0
2014-Sep-23 18:17N 34°10' E 132°19'0 0.0
2014-Sep-23 17:20N 34°10' E 132°19'0 0.0
2014-Sep-23 16:32N 34°10' E 132°19'0 0.0
2014-Sep-23 13:20N 34°10' E 132°19'0 0.0
2014-Sep-23 12:32N 34°10' E 132°19'0 0.0
2014-Sep-23 11:11N 34°10' E 132°19'0 0.0
2014-Sep-23 10:32N 34°10' E 132°19'0 0.0
2014-Sep-23 09:26N 34°10' E 132°19'0 0.0
2014-Sep-23 08:32N 34°10' E 132°19'0 0.0
2014-Sep-23 07:32N 34°10' E 132°19'0 0.1
2014-Sep-23 06:26N 34°10' E 132°19'0 0.0
2014-Sep-23 04:32N 34°10' E 132°19'0 0.0
2014-Sep-22 23:32N 34°10' E 132°19'0 0.0
2014-Sep-22 22:29N 34°10' E 132°19'0 0.0
2014-Sep-22 20:14N 34°10' E 132°19'0 0.0
2014-Sep-22 19:20N 34°10' E 132°19'0 0.0
2014-Sep-22 18:32N 34°10' E 132°19'0 0.1
2014-Sep-22 17:32N 34°10' E 132°19'0 0.0
2014-Sep-22 16:32N 34°10' E 132°19'0 0.0
2014-Sep-22 15:32N 34°10' E 132°19'0 0.0
2014-Sep-22 14:32N 34°10' E 132°19'0 0.0
2014-Sep-22 13:32N 34°10' E 132°19'0 0.0
2014-Sep-22 12:32N 34°10' E 132°19'0 0.0
2014-Sep-22 10:32N 34°10' E 132°19'0 0.1
2014-Sep-22 09:32N 34°10' E 132°19'0 0.0
2014-Sep-22 08:29N 34°10' E 132°19'0 0.0
2014-Sep-22 07:29N 34°10' E 132°19'0 0.0
2014-Sep-22 05:20N 34°10' E 132°19'1 0.2
2014-Sep-21 22:33N 34°11' E 132°17'1 0.0
2014-Sep-20 00:30N 34°10' E 132°18'0 0.0
2014-Sep-19 23:12N 34°10' E 132°18'0 0.1
2014-Sep-19 22:21N 34°10' E 132°18'0 0.0
2014-Sep-19 20:21N 34°10' E 132°18'0 0.0
2014-Sep-19 19:18N 34°10' E 132°18'0 0.0
2014-Sep-19 18:33N 34°10' E 132°18'0 0.0
2014-Sep-19 16:03N 34°10' E 132°19'0 0.0
2014-Sep-19 15:06N 34°10' E 132°19'0 0.3
2014-Sep-19 14:06N 34°10' E 132°19'1510.0
2014-Sep-19 12:33N 34°04' E 132°36'120 5.3
2014-Sep-18 14:11N 34°36' E 134°55'6 8.9
2014-Sep-18 13:33N 34°37' E 135°02'9 8.6
2014-Sep-18 12:33N 34°28' E 135°04'11 9.9
2014-Sep-18 11:27N 34°18' E 134°60'237 8.5
2014-Sep-17 07:30N 35°06' E 139°41'1111.0
2014-Sep-17 06:33N 35°16' E 139°46'10 9.8
2014-Sep-17 05:33N 35°26' E 139°45'5 1.5
2014-Sep-17 02:04N 35°31' E 139°46'0 0.5
2014-Sep-17 01:33N 35°31' E 139°46'3 2.6
2014-Sep-17 00:27N 35°29' E 139°49'0 0.0
2014-Sep-16 23:33N 35°29' E 139°49'0 0.0
2014-Sep-16 22:33N 35°29' E 139°49'0 0.0
2014-Sep-16 21:33N 35°29' E 139°49'0 0.0
2014-Sep-16 20:33N 35°29' E 139°49'0 0.0
2014-Sep-16 19:33N 35°29' E 139°49'0 0.0
2014-Sep-16 18:33N 35°29' E 139°49'0 0.0
2014-Sep-16 17:33N 35°29' E 139°49'0 0.0
2014-Sep-16 16:33N 35°29' E 139°49'0 0.1
2014-Sep-16 15:30N 35°29' E 139°49'0 0.1
2014-Sep-16 14:30N 35°29' E 139°49'0 0.1
2014-Sep-16 13:30N 35°29' E 139°49'0 0.1
2014-Sep-16 12:33N 35°29' E 139°49'0 0.0
2014-Sep-16 11:33N 35°29' E 139°49'0 0.0
2014-Sep-16 10:33N 35°29' E 139°49'0 0.0
2014-Sep-16 09:21N 35°29' E 139°49'0 0.0
2014-Sep-16 08:33N 35°29' E 139°49'0 0.0
2014-Sep-16 07:33N 35°29' E 139°49'0 0.0
2014-Sep-16 06:33N 35°29' E 139°49'0 0.0
2014-Sep-16 05:33N 35°29' E 139°49'0 0.0
2014-Sep-16 04:33N 35°29' E 139°49'0 0.1
2014-Sep-16 03:33N 35°29' E 139°49'0 0.0
2014-Sep-16 02:33N 35°29' E 139°49'0 0.0
2014-Sep-16 01:33N 35°29' E 139°49'0 0.0
2014-Sep-16 00:33N 35°29' E 139°49'0 0.0
2014-Sep-15 23:33N 35°29' E 139°49'0 0.0
2014-Sep-15 22:33N 35°29' E 139°49'0 0.0
2014-Sep-15 21:33N 35°29' E 139°49'0 0.0
2014-Sep-15 20:33N 35°29' E 139°49'0 0.0
2014-Sep-15 19:27N 35°29' E 139°49'1 0.6
2014-Sep-15 18:33N 35°28' E 139°48'1110.7
2014-Sep-15 17:33N 35°18' E 139°45'1110.6
2014-Sep-15 16:33N 35°07' E 139°45'245 9.6
2014-Sep-14 15:03N 34°01' E 134°59'611.8
2014-Sep-14 14:33N 34°07' E 134°59'1312.4
2014-Sep-14 13:32N 34°20' E 134°59'1111.7
2014-Sep-14 12:33N 34°30' E 135°02'7 7.2
2014-Sep-14 11:32N 34°36' E 134°56'  

Dump ship's entire track history